Time;durP1;ratioP1;P1;durP2;ratioP2;P2;SDS_P1;SDS_P2;PMS_P1;PMS_P2;Temp;Humidity;BMP_temperature;BMP_pressure;BME280_temperature;BME280_humidity;BME280_pressure;Samples;Min_cycle;Max_cycle;Signal;HPM_P1;HPM_P2
2022/12/19 00:01:26;;;;;;;16.13;9.52;;;-3276.50;81.60;;;;;;5047570;28;20470;-42
2022/12/19 00:03:58;;;;;;;15.88;10.10;;;-3276.50;81.70;;;;;;5016302;28;20103;-42
2022/12/19 00:06:26;;;;;;;14.70;9.88;;;-3276.50;81.60;;;;;;5028578;28;20025;-40
2022/12/19 00:08:54;;;;;;;17.33;11.27;;;-3276.50;81.50;;;;;;5016246;28;20032;-40
2022/12/19 00:11:22;;;;;;;16.73;9.98;;;-3276.60;81.70;;;;;;5026237;28;20117;-40
2022/12/19 00:13:50;;;;;;;20.40;11.55;;;-3276.60;81.70;;;;;;5035619;28;20062;-43
2022/12/19 00:16:21;;;;;;;15.82;10.93;;;-3276.60;82.10;;;;;;5035299;28;20886;-40
2022/12/19 00:18:49;;;;;;;16.17;10.02;;;-3276.70;82.00;;;;;;5034694;28;20048;-40
2022/12/19 00:21:22;;;;;;;19.52;11.93;;;-3276.70;82.00;;;;;;5035226;28;20029;-40
2022/12/19 00:23:49;;;;;;;20.30;12.57;;;-3276.70;82.10;;;;;;5034743;28;20088;-40
2022/12/19 00:26:21;;;;;;;17.27;11.23;;;-3276.70;82.40;;;;;;5046073;28;20037;-40
2022/12/19 00:28:50;;;;;;;21.05;12.25;;;0.00;82.50;;;;;;5055085;28;20028;-41
2022/12/19 00:31:18;;;;;;;;;;;0.00;82.30;;;;;;5052627;28;20047;-40
2022/12/19 00:33:44;;;;;;;20.15;12.18;;;0.00;82.30;;;;;;5054639;28;20466;-41
2022/12/19 00:36:19;;;;;;;18.48;11.73;;;0.00;82.50;;;;;;5054850;28;20025;-42
2022/12/19 00:38:46;;;;;;;18.08;12.13;;;0.00;82.40;;;;;;5033355;28;20025;-42
2022/12/19 00:41:21;;;;;;;19.90;13.00;;;0.00;82.70;;;;;;5034643;28;20473;-41
2022/12/19 00:43:56;;;;;;;21.10;12.77;;;0.00;83.10;;;;;;5034638;28;20018;-41
2022/12/19 00:46:24;;;;;;;21.40;14.25;;;0.00;83.00;;;;;;5032643;28;20036;-40
2022/12/19 00:48:51;;;;;;;19.35;13.07;;;0.00;82.90;;;;;;5033657;28;20410;-40
2022/12/19 00:51:21;;;;;;;21.17;13.88;;;0.10;83.10;;;;;;5033741;28;20021;-40
2022/12/19 00:53:49;;;;;;;21.27;13.23;;;0.10;83.50;;;;;;5035108;28;20072;-40
2022/12/19 00:56:18;;;;;;;24.33;15.48;;;0.10;83.90;;;;;;5034919;28;20033;-43
2022/12/19 00:58:45;;;;;;;21.90;14.90;;;0.10;84.10;;;;;;5033872;28;20061;-41
2022/12/19 01:01:26;;;;;;;23.92;14.73;;;0.20;84.40;;;;;;5050760;28;20053;-43
2022/12/19 01:03:54;;;;;;;20.45;14.85;;;0.20;84.70;;;;;;5052856;28;20025;-40
2022/12/19 01:06:21;;;;;;;25.60;14.55;;;0.20;85.10;;;;;;5022080;28;20062;-40
2022/12/19 01:08:47;;;;;;;25.17;15.30;;;0.20;85.20;;;;;;5018293;28;20041;-43
2022/12/19 01:11:13;;;;;;;28.25;16.60;;;0.20;85.40;;;;;;5034739;28;20044;-43
2022/12/19 01:13:42;;;;;;;23.95;15.68;;;0.20;85.30;;;;;;5033579;28;20057;-41
2022/12/19 01:16:11;;;;;;;24.27;15.77;;;0.30;85.50;;;;;;5014718;28;20109;-42
2022/12/19 01:18:39;;;;;;;24.25;16.67;;;0.30;85.80;;;;;;5021563;28;20028;-43
2022/12/19 01:21:09;;;;;;;24.92;16.05;;;0.30;86.10;;;;;;5052564;28;20036;-43
2022/12/19 01:23:54;;;;;;;23.95;15.63;;;0.30;86.00;;;;;;5014380;28;20337;-41
2022/12/19 01:26:21;;;;;;;25.13;15.38;;;0.30;86.00;;;;;;5033989;28;20033;-40
2022/12/19 01:28:48;;;;;;;26.02;17.10;;;0.40;86.10;;;;;;5031864;28;20104;-41
2022/12/19 01:31:14;;;;;;;24.27;16.08;;;0.40;86.00;;;;;;5033897;28;20029;-43
2022/12/19 01:33:41;;;;;;;24.23;15.35;;;0.40;86.00;;;;;;5033933;28;20029;-43
2022/12/19 01:36:08;;;;;;;27.65;16.80;;;0.40;86.00;;;;;;5034365;28;20030;-40
2022/12/19 01:38:36;;;;;;;25.60;15.38;;;0.40;86.30;;;;;;5034326;28;20033;-40
2022/12/19 01:41:06;;;;;;;23.75;16.60;;;0.40;86.50;;;;;;5034004;28;20025;-42
2022/12/19 01:44:04;;;;;;;27.23;17.33;;;0.40;86.60;;;;;;5045348;28;20116;-46
2022/12/19 01:46:36;;;;;;;25.75;17.15;;;0.40;86.70;;;;;;5046588;28;20029;-41
2022/12/19 01:49:05;;;;;;;27.08;17.83;;;0.50;86.80;;;;;;5032952;28;20029;-40
2022/12/19 01:51:40;;;;;;;29.60;20.08;;;0.40;87.00;;;;;;5032586;28;20435;-43
2022/12/19 01:54:16;;;;;;;32.78;19.88;;;0.40;87.20;;;;;;5033932;28;20052;-42
2022/12/19 01:56:47;;;;;;;30.83;18.92;;;0.40;87.40;;;;;;5049051;28;20025;-40
2022/12/19 01:59:23;;;;;;;28.67;18.35;;;0.40;87.60;;;;;;5052586;28;20025;-42
2022/12/19 02:01:55;;;;;;;31.75;19.05;;;0.40;87.70;;;;;;5051551;28;20071;-41
2022/12/19 02:04:25;;;;;;;29.75;17.65;;;0.50;87.60;;;;;;5053067;28;20043;-46
2022/12/19 02:06:53;;;;;;;29.67;18.20;;;0.40;87.70;;;;;;5052570;28;20051;-44
2022/12/19 02:09:20;;;;;;;26.67;16.23;;;0.40;87.90;;;;;;5053370;28;20021;-44
2022/12/19 02:11:50;;;;;;;31.05;18.05;;;0.40;87.90;;;;;;5037546;28;20121;-40
2022/12/19 02:14:17;;;;;;;32.22;18.10;;;0.50;87.90;;;;;;5033605;28;20124;-41
2022/12/19 02:17:10;;;;;;;30.27;18.00;;;0.50;88.10;;;;;;5033435;28;20029;-41
2022/12/19 02:19:55;;;;;;;26.98;17.50;;;0.40;88.10;;;;;;5038078;28;20485;-40
2022/12/19 02:22:23;;;;;;;28.40;18.33;;;0.40;88.20;;;;;;5053265;28;20029;-43
2022/12/19 02:25:16;;;;;;;29.15;17.45;;;0.50;88.30;;;;;;5053129;28;20021;-43
2022/12/19 02:28:29;;;;;;;28.45;17.25;;;0.50;88.40;;;;;;5051672;28;20056;-46
2022/12/19 02:31:22;;;;;;;28.55;17.13;;;0.50;88.60;;;;;;5035155;28;20105;-43
2022/12/19 02:34:10;;;;;;;31.48;20.60;;;0.50;88.60;;;;;;5031855;28;20125;-41
2022/12/19 02:36:51;;;;;;;31.25;17.88;;;0.50;88.90;;;;;;5033192;28;20283;-42
2022/12/19 02:39:30;;;;;;;32.92;19.25;;;0.40;89.00;;;;;;5040606;28;20036;-45
2022/12/19 02:41:57;;;;;;;31.67;21.70;;;0.50;89.10;;;;;;5052188;28;20443;-42
2022/12/19 02:44:44;;;;;;;30.05;19.52;;;0.50;89.10;;;;;;5053030;28;20021;-42
2022/12/19 02:47:12;;;;;;;28.17;18.35;;;0.60;89.20;;;;;;5052992;28;20021;-43
2022/12/19 02:49:39;;;;;;;31.63;20.02;;;0.50;89.30;;;;;;5035453;28;20111;-42
2022/12/19 02:52:32;;;;;;;26.45;17.80;;;0.60;89.50;;;;;;5033014;28;20040;-41
2022/12/19 02:55:20;;;;;;;31.58;19.05;;;0.60;89.60;;;;;;5013233;28;20858;-45
2022/12/19 02:58:07;;;;;;;34.63;20.40;;;0.60;89.70;;;;;;5013426;28;20353;-42
2022/12/19 03:00:58;;;;;;;32.47;17.60;;;0.60;89.80;;;;;;5012164;28;20053;-41
2022/12/19 03:03:53;;;;;;;30.85;18.83;;;0.60;90.00;;;;;;5027311;28;20045;-40
2022/12/19 03:07:07;;;;;;;30.65;17.88;;;0.60;90.10;;;;;;5030497;28;20041;-44
2022/12/19 03:09:54;;;;;;;28.38;17.15;;;0.70;90.20;;;;;;5033281;28;20037;-40
2022/12/19 03:12:31;;;;;;;28.90;17.60;;;0.70;90.20;;;;;;5032195;28;20021;-42
2022/12/19 03:15:01;;;;;;;32.55;18.83;;;0.70;90.10;;;;;;5026935;28;20080;-40
2022/12/19 03:17:35;;;;;;;31.70;18.60;;;0.70;90.20;;;;;;5028277;28;20157;-41
2022/12/19 03:20:38;;;;;;;30.17;18.67;;;0.70;90.30;;;;;;5025017;28;20046;-43
2022/12/19 03:23:05;;;;;;;30.30;17.65;;;0.80;90.30;;;;;;5021648;28;20034;-47
2022/12/19 03:25:32;;;;;;;33.85;18.95;;;0.70;90.40;;;;;;5024074;28;20029;-42
2022/12/19 03:28:03;;;;;;;27.80;18.45;;;0.80;90.50;;;;;;5032806;28;20030;-41
2022/12/19 03:30:32;;;;;;;34.50;21.58;;;0.80;90.50;;;;;;5015872;28;20030;-44
2022/12/19 03:33:00;;;;;;;30.20;19.52;;;0.90;90.60;;;;;;5016386;28;20122;-44
2022/12/19 03:35:31;;;;;;;31.83;20.95;;;0.90;90.50;;;;;;5048610;28;20373;-42
2022/12/19 03:38:03;;;;;;;35.45;20.33;;;0.90;90.80;;;;;;5056121;28;20116;-44
2022/12/19 03:40:33;;;;;;;30.63;21.30;;;0.90;90.90;;;;;;5052077;28;20146;-44
2022/12/19 03:43:10;;;;;;;30.48;20.00;;;0.90;90.80;;;;;;5035937;28;20021;-46
2022/12/19 03:46:08;;;;;;;34.40;21.45;;;0.90;90.90;;;;;;5035980;28;20082;-44
2022/12/19 03:48:53;;;;;;;35.90;19.23;;;1.00;90.90;;;;;;5051099;28;20433;-44
2022/12/19 03:52:00;;;;;;;34.33;20.35;;;1.00;90.90;;;;;;5026900;28;20068;-47
2022/12/19 03:54:37;;;;;;;34.60;19.50;;;1.00;91.00;;;;;;5023567;28;20029;-45
2022/12/19 03:57:21;;;;;;;30.65;20.27;;;1.00;91.00;;;;;;5028110;28;20040;-49
2022/12/19 04:00:13;;;;;;;28.92;19.02;;;1.00;91.00;;;;;;5025021;28;20022;-48
2022/12/19 04:02:44;;;;;;;30.27;19.25;;;1.10;91.00;;;;;;5026401;28;20061;-54
2022/12/19 04:05:17;;;;;;;31.88;18.77;;;1.10;91.10;;;;;;5018184;28;20042;-55
2022/12/19 04:07:44;;;;;;;33.13;19.15;;;1.10;91.10;;;;;;5015817;28;20371;-55
2022/12/19 04:10:15;;;;;;;35.58;20.25;;;1.10;91.10;;;;;;5031302;28;20044;-57
2022/12/19 04:12:52;;;;;;;34.25;21.85;;;1.00;91.20;;;;;;5035812;28;20442;-59
2022/12/19 04:15:24;;;;;;;36.13;22.02;;;1.10;91.40;;;;;;5050058;28;20358;-60
2022/12/19 04:17:56;;;;;;;31.70;21.25;;;1.00;91.40;;;;;;5055492;28;20028;-62
2022/12/19 04:20:27;;;;;;;37.70;21.25;;;1.00;91.70;;;;;;5055333;28;20025;-64
2022/12/19 04:23:14;;;;;;;36.15;22.42;;;1.10;91.90;;;;;;5041616;28;20030;-67
2022/12/19 04:25:49;;;;;;;36.92;20.48;;;1.10;92.10;;;;;;5034582;28;20021;-69
2022/12/19 04:28:37;;;;;;;33.10;21.15;;;1.10;92.30;;;;;;5035271;28;20060;-71
2022/12/19 04:31:05;;;;;;;36.17;21.60;;;1.10;92.40;;;;;;5035575;28;20048;-71
2022/12/19 04:33:32;;;;;;;38.40;20.63;;;1.10;92.60;;;;;;5048881;28;20115;-70
2022/12/19 04:35:59;;;;;;;42.00;23.98;;;1.10;92.70;;;;;;5041478;28;20047;-68
2022/12/19 04:38:28;;;;;;;36.55;21.73;;;1.10;92.80;;;;;;5034180;28;20347;-67
2022/12/19 04:40:55;;;;;;;38.50;21.15;;;1.10;92.80;;;;;;5025015;28;20042;-66
2022/12/19 04:43:22;;;;;;;37.95;22.02;;;1.10;93.00;;;;;;5040652;28;20098;-65
2022/12/19 04:45:48;;;;;;;36.63;21.42;;;1.20;93.10;;;;;;5034104;28;20040;-65
2022/12/19 04:48:15;;;;;;;36.92;20.17;;;1.20;93.10;;;;;;5033742;28;20025;-63
2022/12/19 04:50:43;;;;;;;40.00;21.02;;;1.20;93.20;;;;;;5026273;28;20131;-62
2022/12/19 04:53:10;;;;;;;32.95;20.65;;;1.20;93.30;;;;;;5022760;28;20060;-61
2022/12/19 04:55:36;;;;;;;35.35;23.15;;;1.30;93.30;;;;;;5023647;28;20041;-61
2022/12/19 04:58:04;;;;;;;39.15;21.95;;;1.30;93.30;;;;;;5029314;28;20033;-60
2022/12/19 05:00:32;;;;;;;37.33;21.50;;;1.30;93.30;;;;;;5022161;28;20053;-60
2022/12/19 05:02:59;;;;;;;39.47;22.10;;;1.30;93.30;;;;;;5028379;28;20034;-60
2022/12/19 05:05:27;;;;;;;34.72;24.02;;;1.30;93.50;;;;;;5023346;28;20037;-60
2022/12/19 05:07:52;;;;;;;38.95;22.17;;;1.30;93.50;;;;;;5024905;28;20038;-61
2022/12/19 05:10:18;;;;;;;40.50;20.67;;;1.40;93.50;;;;;;5026945;28;20026;-60
2022/12/19 05:12:44;;;;;;;36.17;20.70;;;1.40;93.50;;;;;;5023423;28;20040;-60
2022/12/19 05:15:11;;;;;;;37.90;21.55;;;1.40;93.60;;;;;;5024327;28;20077;-60
2022/12/19 05:17:38;;;;;;;40.83;22.52;;;1.40;93.60;;;;;;5022680;28;20021;-60
2022/12/19 05:20:06;;;;;;;37.45;21.15;;;1.50;93.60;;;;;;5026378;28;20116;-60
2022/12/19 05:22:33;;;;;;;37.95;21.65;;;1.50;93.70;;;;;;5023381;28;20032;-59
2022/12/19 05:25:00;;;;;;;39.45;21.00;;;1.40;93.70;;;;;;5023747;28;20088;-60
2022/12/19 05:27:27;;;;;;;36.22;20.13;;;1.50;93.80;;;;;;5024481;28;20121;-60
2022/12/19 05:29:53;;;;;;;41.13;22.95;;;1.50;93.80;;;;;;5017972;28;20032;-59
2022/12/19 05:32:22;;;;;;;36.33;21.73;;;1.60;93.90;;;;;;5029805;28;20105;-59
2022/12/19 05:34:49;;;;;;;39.55;21.65;;;1.60;93.90;;;;;;5029616;28;20109;-57
2022/12/19 05:37:16;;;;;;;34.65;20.67;;;1.60;94.00;;;;;;5027869;28;20725;-57
2022/12/19 05:39:42;;;;;;;44.75;24.02;;;1.60;93.90;;;;;;5033919;28;20393;-59
2022/12/19 05:42:11;;;;;;;43.85;23.38;;;1.60;93.90;;;;;;5017537;28;20034;-58
2022/12/19 05:44:38;;;;;;;39.72;21.45;;;1.60;94.10;;;;;;5013629;28;20497;-58
2022/12/19 05:47:05;;;;;;;42.60;23.58;;;1.70;94.10;;;;;;5028839;28;20038;-57
2022/12/19 05:49:32;;;;;;;40.70;22.17;;;1.70;94.10;;;;;;5023220;28;20439;-57
2022/12/19 05:51:59;;;;;;;41.35;21.92;;;1.70;94.10;;;;;;5019192;28;20036;-56
2022/12/19 05:54:27;;;;;;;38.70;22.55;;;1.70;94.20;;;;;;5022713;28;20022;-54
2022/12/19 05:56:53;;;;;;;38.70;22.55;;;1.70;94.20;;;;;;5016811;28;20057;-55
2022/12/19 05:59:20;;;;;;;46.67;26.55;;;1.70;94.20;;;;;;5023488;28;20041;-56
2022/12/19 06:01:47;;;;;;;42.58;24.27;;;1.80;94.40;;;;;;5030996;28;20427;-58
2022/12/19 06:04:13;;;;;;;40.33;21.55;;;1.80;94.40;;;;;;5015423;28;20029;-57
2022/12/19 06:06:40;;;;;;;44.75;25.15;;;1.90;94.50;;;;;;5024585;28;20036;-57
2022/12/19 06:09:09;;;;;;;44.72;24.30;;;1.90;94.50;;;;;;5025402;28;20435;-58
2022/12/19 06:11:35;;;;;;;47.73;24.47;;;1.90;94.50;;;;;;5018891;28;20030;-58
2022/12/19 06:14:07;;;;;;;43.08;24.52;;;1.90;94.50;;;;;;5013556;28;20447;-58
2022/12/19 06:16:34;;;;;;;38.38;21.73;;;2.00;94.60;;;;;;5033283;28;20051;-56
2022/12/19 06:19:00;;;;;;;45.80;24.58;;;2.00;94.70;;;;;;5023387;28;20041;-58
2022/12/19 06:21:27;;;;;;;44.10;22.73;;;1.90;94.50;;;;;;5038747;28;20443;-57
2022/12/19 06:23:54;;;;;;;45.35;25.77;;;2.00;94.60;;;;;;5020551;28;20040;-58
2022/12/19 06:26:21;;;;;;;40.47;23.88;;;2.00;94.70;;;;;;5027427;28;20040;-58
2022/12/19 06:28:50;;;;;;;41.85;24.75;;;1.90;94.70;;;;;;5042045;28;20029;-59
2022/12/19 06:31:19;;;;;;;43.70;26.13;;;2.00;94.70;;;;;;5020319;28;20026;-60
2022/12/19 06:33:46;;;;;;;44.63;24.77;;;1.90;94.70;;;;;;5028022;28;20021;-60
2022/12/19 06:36:20;;;;;;;41.55;22.58;;;2.00;94.80;;;;;;5016923;28;20030;-58
2022/12/19 06:38:47;;;;;;;43.75;25.67;;;2.00;94.80;;;;;;5023362;28;20651;-60
2022/12/19 06:44:05;;;;;;;48.45;25.13;;;2.00;94.80;;;;;;5020624;28;20044;-61
2022/12/19 06:46:32;;;;;;;50.28;26.80;;;2.00;94.90;;;;;;5023873;28;20121;-61
2022/12/19 06:49:02;;;;;;;49.25;26.35;;;2.00;94.90;;;;;;5023320;28;20021;-61
2022/12/19 06:51:29;;;;;;;43.50;23.95;;;2.00;94.90;;;;;;5018329;28;20022;-61
2022/12/19 06:53:56;;;;;;;45.67;24.20;;;2.00;95.00;;;;;;5028673;28;20042;-61
2022/12/19 06:56:25;;;;;;;47.72;25.55;;;2.10;95.00;;;;;;5033156;28;20022;-61
2022/12/19 06:58:52;;;;;;;44.88;25.60;;;2.00;94.90;;;;;;5052296;28;20469;-61
2022/12/19 07:01:39;;;;;;;40.90;23.73;;;2.00;94.90;;;;;;5051977;28;20378;-61
2022/12/19 07:04:08;;;;;;;44.45;24.63;;;2.10;95.00;;;;;;5046554;28;20038;-61
2022/12/19 07:06:35;;;;;;;44.25;23.92;;;2.10;95.00;;;;;;5051151;28;20362;-61
2022/12/19 07:09:04;;;;;;;44.20;25.20;;;2.10;95.00;;;;;;5050221;28;20316;-61
2022/12/19 07:11:32;;;;;;;42.63;26.17;;;2.10;95.10;;;;;;5015596;28;20025;-60
2022/12/19 07:13:58;;;;;;;44.72;26.90;;;2.10;95.10;;;;;;5011768;28;20553;-60
2022/12/19 07:16:26;;;;;;;48.90;24.75;;;2.10;95.10;;;;;;5022989;28;20036;-60
2022/12/19 07:18:57;;;;;;;44.60;24.40;;;2.10;95.10;;;;;;5023879;28;20148;-61
2022/12/19 07:21:27;;;;;;;49.78;25.52;;;2.20;95.20;;;;;;5021541;28;20025;-61
2022/12/19 07:23:54;;;;;;;48.05;24.05;;;2.10;95.10;;;;;;5050988;28;20124;-62
2022/12/19 07:26:22;;;;;;;43.20;24.15;;;2.20;95.20;;;;;;5052174;28;20037;-62
2022/12/19 07:28:48;;;;;;;50.83;25.90;;;2.20;95.20;;;;;;5049125;28;20040;-61
2022/12/19 07:31:15;;;;;;;45.67;23.90;;;2.20;95.10;;;;;;5023961;28;20026;-62
2022/12/19 07:33:41;;;;;;;50.47;26.88;;;2.20;95.20;;;;;;5026248;28;20109;-62
2022/12/19 07:36:11;;;;;;;49.85;25.77;;;2.20;95.30;;;;;;5013255;28;20101;-62
2022/12/19 07:38:40;;;;;;;46.05;24.60;;;2.30;95.30;;;;;;5016690;28;20029;-63
2022/12/19 07:41:07;;;;;;;51.53;26.02;;;2.30;95.30;;;;;;5027010;28;20359;-63
2022/12/19 07:43:34;;;;;;;55.15;26.25;;;2.30;95.30;;;;;;5019973;28;20362;-63
2022/12/19 07:46:01;;;;;;;48.03;27.70;;;2.30;95.30;;;;;;5031276;28;20086;-62
2022/12/19 07:48:30;;;;;;;51.55;27.33;;;2.40;95.30;;;;;;5034697;28;20087;-61
2022/12/19 07:50:57;;;;;;;47.85;24.63;;;2.40;95.40;;;;;;5026201;28;20080;-60
2022/12/19 07:53:24;;;;;;;52.33;27.63;;;2.40;95.40;;;;;;5020806;28;20041;-60
2022/12/19 07:55:51;;;;;;;47.70;26.83;;;2.50;95.40;;;;;;5027874;28;20029;-61
2022/12/19 07:58:19;;;;;;;46.35;25.35;;;2.50;95.40;;;;;;5030824;28;20036;-60
2022/12/19 08:00:55;;;;;;;45.08;25.38;;;2.50;95.40;;;;;;5031775;28;20098;-60
2022/12/19 08:03:23;;;;;;;40.50;25.38;;;2.50;95.40;;;;;;5031864;28;20036;-60
2022/12/19 08:05:49;;;;;;;44.35;25.02;;;2.50;95.40;;;;;;5016787;28;20450;-61
2022/12/19 08:08:16;;;;;;;43.58;23.95;;;2.50;95.40;;;;;;5034639;28;20025;-61
2022/12/19 08:10:43;;;;;;;47.85;26.48;;;2.60;95.50;;;;;;5016946;28;20597;-60
2022/12/19 08:13:10;;;;;;;44.47;27.80;;;2.60;95.50;;;;;;5034634;28;20100;-60
2022/12/19 08:15:39;;;;;;;48.63;25.42;;;2.60;95.40;;;;;;5034363;28;20050;-61
2022/12/19 08:18:06;;;;;;;42.30;24.98;;;2.60;95.50;;;;;;5025983;28;20033;-62
2022/12/19 08:20:33;;;;;;;45.03;27.42;;;2.60;95.50;;;;;;5013232;28;20065;-62
2022/12/19 08:23:01;;;;;;;42.60;25.65;;;2.70;95.50;;;;;;5032250;28;20060;-62
2022/12/19 08:25:32;;;;;;;48.17;26.45;;;2.80;95.60;;;;;;5040839;28;20044;-62
2022/12/19 08:27:58;;;;;;;45.40;25.33;;;2.80;95.50;;;;;;5022741;28;20025;-63
2022/12/19 08:30:24;;;;;;;49.50;26.02;;;2.80;95.50;;;;;;5033903;28;20097;-63
2022/12/19 08:32:50;;;;;;;41.53;23.90;;;2.80;95.50;;;;;;5031459;28;20082;-64
2022/12/19 08:35:16;;;;;;;45.60;26.90;;;2.80;95.60;;;;;;5017687;28;20455;-63
2022/12/19 08:37:43;;;;;;;44.10;23.83;;;2.90;95.60;;;;;;5027787;28;20469;-64
2022/12/19 08:40:11;;;;;;;43.78;23.70;;;2.90;95.50;;;;;;5025357;28;20033;-63
2022/12/19 08:42:37;;;;;;;41.42;24.20;;;2.90;95.60;;;;;;5021362;28;20120;-63
2022/12/19 08:45:05;;;;;;;40.10;24.98;;;2.90;95.60;;;;;;5027961;28;20061;-63
2022/12/19 08:47:32;;;;;;;41.80;24.27;;;2.90;95.70;;;;;;5034579;28;20120;-64
2022/12/19 08:49:59;;;;;;;45.33;24.98;;;3.00;95.70;;;;;;5034011;28;20355;-65
2022/12/19 08:52:25;;;;;;;37.47;23.27;;;3.00;95.70;;;;;;5033662;28;20707;-64
2022/12/19 08:54:54;;;;;;;44.72;24.33;;;3.00;95.70;;;;;;5033122;28;20514;-65
2022/12/19 08:57:20;;;;;;;38.45;23.13;;;3.10;95.70;;;;;;5013442;28;20052;-66
2022/12/19 08:59:46;;;;;;;38.15;22.73;;;3.20;95.80;;;;;;5041611;28;20413;-67
2022/12/19 09:02:14;;;;;;;43.30;23.23;;;3.30;95.80;;;;;;5019969;28;20483;-68
2022/12/19 09:04:41;;;;;;;39.25;23.88;;;3.30;95.80;;;;;;5032441;28;20033;-69
2022/12/19 09:07:08;;;;;;;43.10;24.23;;;3.30;95.70;;;;;;5032654;28;20037;-69
2022/12/19 09:09:38;;;;;;;43.78;26.38;;;3.30;95.70;;;;;;5033910;28;20030;-69
2022/12/19 09:12:07;;;;;;;39.47;24.08;;;3.40;95.80;;;;;;5019671;28;20167;-68
2022/12/19 09:14:34;;;;;;;42.13;24.97;;;3.40;95.80;;;;;;5027196;28;20022;-67
2022/12/19 09:17:01;;;;;;;39.75;24.92;;;3.40;95.80;;;;;;5023584;28;20380;-67
2022/12/19 09:19:28;;;;;;;38.05;23.92;;;3.40;95.80;;;;;;5031181;28;20033;-67
2022/12/19 09:21:55;;;;;;;45.53;26.02;;;3.40;95.80;;;;;;5027022;28;20097;-67
2022/12/19 09:24:21;;;;;;;38.25;25.27;;;3.50;95.90;;;;;;5031280;28;20041;-66
2022/12/19 09:26:48;;;;;;;39.83;23.90;;;3.50;95.80;;;;;;5023029;28;20151;-66
2022/12/19 09:29:20;;;;;;;44.30;26.40;;;3.50;95.80;;;;;;5033103;28;20096;-66
2022/12/19 09:31:51;;;;;;;38.88;24.88;;;3.60;95.90;;;;;;5025165;28;20080;-66
2022/12/19 09:34:18;;;;;;;39.95;23.98;;;3.60;95.90;;;;;;5017615;28;20037;-66
2022/12/19 09:36:45;;;;;;;39.60;24.25;;;3.60;95.80;;;;;;5032572;28;20497;-65
2022/12/19 09:39:17;;;;;;;34.72;21.80;;;3.60;95.90;;;;;;5033117;28;20454;-65
2022/12/19 09:42:12;;;;;;;34.47;22.98;;;3.70;95.90;;;;;;5033113;28;20025;-65
2022/12/19 09:45:02;;;;;;;40.95;22.88;;;3.70;95.90;;;;;;5036070;28;20020;-65
2022/12/19 09:47:29;;;;;;;;;;;3.70;95.90;;;;;;5020830;28;20049;-64
2022/12/19 09:49:59;;;;;;;30.60;21.10;;;3.80;95.90;;;;;;5027539;28;20589;-63
2022/12/19 09:52:28;;;;;;;;;;;3.80;95.90;;;;;;5024621;28;20018;-62
2022/12/19 09:55:31;;;;;;;35.17;20.20;;;3.80;96.00;;;;;;5026480;28;19912;-62
2022/12/19 09:58:17;;;;;;;33.35;21.80;;;3.90;96.00;;;;;;5024538;28;20034;-62
2022/12/19 10:00:59;;;;;;;33.58;21.85;;;3.90;96.00;;;;;;5026951;28;20071;-63
2022/12/19 10:03:33;;;;;;;32.35;21.98;;;3.90;95.90;;;;;;5031962;28;20033;-64
2022/12/19 10:06:22;;;;;;;32.55;21.83;;;4.00;96.10;;;;;;5032547;28;20442;-62
2022/12/19 10:08:51;;;;;;;29.50;21.33;;;4.10;96.10;;;;;;5032533;28;20042;-62
2022/12/19 10:11:30;;;;;;;28.73;20.83;;;4.10;96.00;;;;;;5025142;28;20065;-63
2022/12/19 10:14:24;;;;;;;33.08;22.20;;;4.10;96.00;;;;;;5031680;28;20021;-64
2022/12/19 10:17:14;;;;;;;32.45;22.33;;;4.20;96.10;;;;;;5032244;28;20022;-65
2022/12/19 10:20:05;;;;;;;30.55;20.38;;;4.20;96.00;;;;;;5016183;28;20022;-65
2022/12/19 10:22:43;;;;;;;29.38;21.52;;;4.20;96.00;;;;;;5030633;28;20052;-65
2022/12/19 10:25:46;;;;;;;30.80;21.73;;;4.20;96.00;;;;;;5014070;28;20356;-64
2022/12/19 10:28:27;;;;;;;31.05;19.50;;;4.20;96.00;;;;;;5019314;28;20033;-63
2022/12/19 10:31:32;;;;;;;31.73;22.58;;;4.40;96.20;;;;;;5017201;28;20494;-64
2022/12/19 10:34:23;;;;;;;29.80;20.05;;;4.30;96.10;;;;;;5016725;28;20034;-64
2022/12/19 10:37:19;;;;;;;32.28;20.98;;;4.40;96.10;;;;;;5021009;28;20091;-65
2022/12/19 10:40:06;;;;;;;29.75;20.52;;;4.50;96.20;;;;;;5018830;28;20026;-64
2022/12/19 10:42:57;;;;;;;34.75;21.20;;;4.50;96.10;;;;;;5031222;28;20094;-65
2022/12/19 10:45:31;;;;;;;29.10;21.17;;;4.50;96.10;;;;;;5031291;28;20021;-64
2022/12/19 10:47:58;;;;;;;26.67;19.02;;;4.50;96.10;;;;;;5047119;28;20112;-63
2022/12/19 10:50:28;;;;;;;26.08;19.40;;;4.50;96.10;;;;;;5027687;28;20033;-63
2022/12/19 10:53:13;;;;;;;25.38;18.70;;;4.50;96.20;;;;;;5028125;28;20450;-62
2022/12/19 10:56:01;;;;;;;25.95;18.67;;;4.60;96.10;;;;;;5021696;28;20030;-61
2022/12/19 10:58:36;;;;;;;30.83;19.67;;;4.60;96.20;;;;;;5045039;28;20033;-62
2022/12/19 11:01:24;;;;;;;27.55;19.35;;;4.70;96.20;;;;;;5029186;28;20120;-60
2022/12/19 11:04:12;;;;;;;26.67;19.30;;;4.70;96.20;;;;;;5031752;28;20030;-63
2022/12/19 11:06:59;;;;;;;28.40;19.85;;;4.70;96.20;;;;;;5026119;28;20033;-63
2022/12/19 11:09:42;;;;;;;28.98;20.48;;;4.70;96.20;;;;;;5027084;28;20030;-63
2022/12/19 11:12:27;;;;;;;30.83;21.25;;;4.70;96.20;;;;;;5027958;28;20057;-63
2022/12/19 11:15:14;;;;;;;28.90;19.63;;;4.80;96.30;;;;;;5016995;28;20049;-64
2022/12/19 11:17:41;;;;;;;30.20;20.73;;;4.90;96.30;;;;;;5024892;28;20087;-64
2022/12/19 11:20:16;;;;;;;30.27;20.33;;;4.90;96.20;;;;;;5023055;28;20036;-63
2022/12/19 11:22:54;;;;;;;30.40;21.30;;;5.00;96.20;;;;;;5027998;28;20025;-62
2022/12/19 11:25:34;;;;;;;28.40;20.10;;;5.00;96.20;;;;;;5019490;28;20022;-61
2022/12/19 11:28:02;;;;;;;;;;;5.00;96.30;;;;;;5011953;28;20034;-60
2022/12/19 11:30:30;;;;;;;28.70;19.25;;;5.00;96.30;;;;;;5025035;28;19913;-60
2022/12/19 11:33:16;;;;;;;33.72;22.15;;;5.00;96.20;;;;;;5015644;28;20339;-57
2022/12/19 11:35:57;;;;;;;34.40;21.88;;;5.10;96.30;;;;;;5022331;28;20049;-58
2022/12/19 11:38:44;;;;;;;34.53;23.75;;;5.10;96.30;;;;;;5025964;28;20029;-57
2022/12/19 11:41:38;;;;;;;31.58;21.45;;;5.20;96.30;;;;;;5025616;28;20029;-57
2022/12/19 11:44:22;;;;;;;30.80;22.33;;;5.30;96.30;;;;;;5027903;28;20466;-58
2022/12/19 11:47:13;;;;;;;33.50;23.60;;;5.40;96.30;;;;;;5028482;28;20459;-58
2022/12/19 11:49:58;;;;;;;32.90;22.33;;;5.40;96.30;;;;;;5024116;28;20017;-58
2022/12/19 11:52:55;;;;;;;35.35;22.67;;;5.50;96.40;;;;;;5030894;28;20394;-57
2022/12/19 11:55:44;;;;;;;32.03;23.15;;;5.50;96.30;;;;;;5025479;28;20069;-54
2022/12/19 11:58:12;;;;;;;36.13;23.77;;;5.60;96.40;;;;;;5029962;28;20472;-56
2022/12/19 12:01:03;;;;;;;30.90;21.92;;;5.60;96.30;;;;;;5028605;28;20060;-54
2022/12/19 12:03:56;;;;;;;31.02;22.55;;;5.60;96.30;;;;;;5030684;28;20025;-57
2022/12/19 12:06:28;;;;;;;31.08;23.50;;;5.70;96.40;;;;;;5018255;28;20080;-58
2022/12/19 12:09:23;;;;;;;35.90;25.13;;;5.80;96.40;;;;;;5035615;28;20075;-61
2022/12/19 12:12:04;;;;;;;33.15;24.08;;;5.80;96.40;;;;;;5024437;28;20118;-62
2022/12/19 12:14:56;;;;;;;31.13;21.10;;;5.90;96.40;;;;;;5040005;28;20052;-62
2022/12/19 12:17:46;;;;;;;34.40;23.02;;;5.90;96.40;;;;;;5033932;28;20029;-62
2022/12/19 12:20:49;;;;;;;32.22;22.70;;;5.90;96.40;;;;;;5033139;28;20029;-62
2022/12/19 12:23:27;;;;;;;30.27;22.17;;;6.00;96.40;;;;;;5023655;28;20044;-64
2022/12/19 12:26:26;;;;;;;33.22;23.30;;;6.00;96.40;;;;;;5032687;28;20087;-63
2022/12/19 12:29:32;;;;;;;35.97;23.38;;;6.00;96.40;;;;;;5044042;28;20061;-62
2022/12/19 12:32:02;;;;;;;34.67;22.58;;;6.10;96.50;;;;;;5042659;28;20029;-61
2022/12/19 12:34:49;;;;;;;35.97;23.23;;;6.20;96.50;;;;;;5026013;28;20025;-61
2022/12/19 12:37:36;;;;;;;38.05;23.30;;;6.30;96.50;;;;;;5021869;28;20038;-58
2022/12/19 12:40:20;;;;;;;33.53;22.75;;;6.30;96.50;;;;;;5023335;28;20104;-59
2022/12/19 12:43:23;;;;;;;32.38;21.33;;;6.40;96.50;;;;;;5029217;28;20099;-58
2022/12/19 12:45:49;;;;;;;31.88;21.05;;;6.40;96.50;;;;;;5034133;28;20094;-57
2022/12/19 12:48:31;;;;;;;33.22;22.13;;;6.40;96.50;;;;;;5032340;28;20025;-55
2022/12/19 12:51:00;;;;;;;31.38;22.38;;;6.50;96.50;;;;;;5021582;28;20034;-54
2022/12/19 12:53:39;;;;;;;28.80;21.85;;;6.50;96.50;;;;;;5030813;28;20100;-56
2022/12/19 12:56:09;;;;;;;33.00;21.00;;;6.50;96.50;;;;;;5032264;28;20053;-55
2022/12/19 12:58:47;;;;;;;28.65;21.33;;;6.50;96.50;;;;;;5032595;28;20068;-50
2022/12/19 13:01:32;;;;;;;35.60;22.15;;;6.50;96.50;;;;;;5026754;28;20121;-54
2022/12/19 13:04:15;;;;;;;34.40;20.05;;;6.60;96.60;;;;;;5043908;28;20032;-52
2022/12/19 13:06:50;;;;;;;33.67;22.58;;;6.60;96.60;;;;;;5035424;28;20029;-51
2022/12/19 13:09:28;;;;;;;32.17;22.75;;;6.70;96.50;;;;;;5032384;28;20026;-55
2022/12/19 13:14:50;;;;;;;31.52;21.17;;;6.70;96.50;;;;;;5033683;28;20431;-53
2022/12/19 13:17:31;;;;;;;31.13;20.95;;;6.80;96.60;;;;;;5032557;28;20033;-54